createdAt,value
2018-12-27T00:04:51.825Z,17.93
2018-12-27T00:09:55.500Z,17.43
2018-12-27T00:14:59.179Z,18.47
2018-12-27T00:20:02.889Z,16.93
2018-12-27T00:25:06.736Z,18.37
2018-12-27T00:30:10.881Z,19.50
2018-12-27T00:35:14.705Z,19.00
2018-12-27T00:40:18.537Z,19.87
2018-12-27T00:45:22.385Z,20.63
2018-12-27T00:50:26.231Z,19.47
2018-12-27T00:55:30.112Z,16.37
2018-12-27T01:00:34.005Z,17.27
2018-12-27T01:05:37.864Z,15.80
2018-12-27T01:10:41.745Z,17.77
2018-12-27T01:15:45.559Z,15.17
2018-12-27T01:20:49.407Z,17.53
2018-12-27T01:25:53.582Z,16.70
2018-12-27T01:30:57.818Z,15.57
2018-12-27T01:36:01.633Z,14.47
2018-12-27T01:41:05.461Z,15.17
2018-12-27T01:46:09.276Z,13.90
2018-12-27T01:51:13.145Z,12.27
2018-12-27T01:56:16.988Z,13.13
2018-12-27T02:01:20.833Z,12.40
2018-12-27T02:06:24.741Z,11.80
2018-12-27T02:11:28.611Z,12.57
2018-12-27T02:16:32.516Z,11.77
2018-12-27T02:21:36.428Z,11.67
2018-12-27T02:26:40.315Z,11.57
2018-12-27T02:31:44.287Z,12.20
2018-12-27T02:36:48.557Z,11.17
2018-12-27T02:41:52.384Z,11.93
2018-12-27T02:46:56.208Z,12.87
2018-12-27T02:52:00.219Z,12.30
2018-12-27T02:57:04.273Z,12.13
2018-12-27T03:02:08.097Z,12.87
2018-12-27T03:07:11.936Z,12.77
2018-12-27T03:12:15.777Z,13.40
2018-12-27T03:17:19.892Z,12.97
2018-12-27T03:22:23.712Z,12.40
2018-12-27T03:27:27.853Z,12.00
2018-12-27T03:32:31.679Z,10.87
2018-12-27T03:37:35.497Z,11.40
2018-12-27T03:42:39.320Z,12.70
2018-12-27T03:47:43.158Z,12.00
2018-12-27T03:52:47.030Z,12.20
2018-12-27T03:57:50.862Z,12.27
2018-12-27T04:02:55.351Z,12.40
2018-12-27T04:07:59.172Z,13.10
2018-12-27T04:13:03.320Z,12.83
2018-12-27T04:18:06.995Z,12.20
2018-12-27T04:23:10.728Z,12.97
2018-12-27T04:28:14.691Z,12.73
2018-12-27T04:33:19.012Z,11.60
2018-12-27T04:38:23.041Z,12.47
2018-12-27T04:43:27.102Z,12.00
2018-12-27T04:48:30.822Z,12.03
2018-12-27T04:53:34.535Z,11.90
2018-12-27T04:58:38.526Z,11.90
2018-12-27T05:03:42.211Z,11.10
2018-12-27T05:08:46.151Z,12.23
2018-12-27T05:13:50.108Z,11.00
2018-12-27T05:18:53.799Z,11.10
2018-12-27T05:23:57.490Z,11.50
2018-12-27T05:29:01.151Z,12.33
2018-12-27T05:34:05.181Z,11.33
2018-12-27T05:39:09.223Z,12.30
2018-12-27T05:44:12.929Z,12.07
2018-12-27T05:49:16.624Z,12.63
2018-12-27T05:54:20.353Z,11.90
2018-12-27T05:59:24.038Z,12.23
2018-12-27T06:04:33.793Z,12.40
2018-12-27T06:09:33.160Z,12.37
2018-12-27T06:14:37.217Z,11.90
2018-12-27T06:19:40.915Z,12.63
2018-12-27T06:24:44.905Z,11.97
2018-12-27T06:29:48.996Z,11.87
2018-12-27T06:34:52.705Z,11.33
2018-12-27T06:39:56.933Z,11.37
2018-12-27T06:45:00.676Z,12.07
2018-12-27T06:50:04.761Z,12.07
2018-12-27T06:55:08.493Z,12.13
2018-12-27T07:00:12.174Z,12.57
2018-12-27T07:05:15.861Z,12.57
2018-12-27T07:10:19.561Z,13.00
2018-12-27T07:15:23.232Z,12.60
2018-12-27T07:20:26.935Z,12.83
2018-12-27T07:25:30.904Z,12.10
2018-12-27T07:30:34.637Z,16.00
2018-12-27T07:35:38.317Z,14.47
2018-12-27T07:40:42.027Z,12.83
2018-12-27T07:45:45.741Z,12.00
2018-12-27T07:50:49.691Z,11.83
2018-12-27T07:55:53.390Z,12.90
2018-12-27T08:00:57.109Z,11.37
2018-12-27T08:06:00.827Z,14.03
2018-12-27T08:11:04.519Z,13.33
2018-12-27T08:16:08.528Z,14.13
2018-12-27T08:21:12.248Z,14.20
2018-12-27T08:26:15.968Z,14.97
2018-12-27T08:31:19.927Z,14.07
2018-12-27T08:36:23.597Z,15.70
2018-12-27T08:41:27.252Z,14.93
2018-12-27T08:46:30.928Z,14.93
2018-12-27T08:51:34.621Z,14.93
2018-12-27T08:56:38.560Z,15.60
2018-12-27T09:01:42.245Z,15.20
2018-12-27T09:06:46.333Z,15.30
2018-12-27T09:11:50.035Z,12.63
2018-12-27T09:16:53.749Z,12.80
2018-12-27T09:21:57.425Z,11.10
2018-12-27T09:27:01.088Z,12.70
2018-12-27T09:32:04.774Z,7.37
2018-12-27T09:37:08.715Z,4.80
2018-12-27T09:42:12.689Z,4.00
2018-12-27T09:47:16.768Z,3.40
2018-12-27T09:52:20.812Z,3.40
2018-12-27T09:57:24.881Z,3.17
2018-12-27T10:02:28.877Z,3.63
2018-12-27T10:07:32.549Z,3.53
2018-12-27T10:12:36.223Z,3.50
2018-12-27T10:17:40.140Z,3.10
2018-12-27T10:22:43.869Z,3.50
2018-12-27T10:27:47.895Z,3.60
2018-12-27T10:32:51.657Z,3.73
2018-12-27T10:37:55.333Z,3.20
2018-12-27T10:42:59.004Z,3.43
2018-12-27T10:48:02.667Z,3.30
2018-12-27T10:53:06.328Z,3.07
2018-12-27T10:58:10.057Z,3.43
2018-12-27T11:03:14.101Z,3.80
2018-12-27T11:08:18.057Z,3.23
2018-12-27T11:13:21.746Z,3.23
2018-12-27T11:18:25.416Z,3.43
2018-12-27T11:23:29.103Z,3.00
2018-12-27T11:28:32.788Z,3.20
2018-12-27T11:33:36.483Z,3.00
2018-12-27T11:38:40.169Z,3.20
2018-12-27T11:43:43.911Z,3.10
2018-12-27T11:48:48.117Z,3.17
2018-12-27T11:53:51.804Z,3.07
2018-12-27T11:58:55.481Z,3.47
2018-12-27T12:03:59.157Z,3.37
2018-12-27T12:09:03.413Z,3.57
2018-12-27T12:14:07.474Z,3.43
2018-12-27T12:19:11.197Z,3.20
2018-12-27T12:24:14.897Z,3.20
2018-12-27T12:29:18.817Z,3.60
2018-12-27T12:34:22.509Z,3.50
2018-12-27T12:39:26.474Z,3.40
2018-12-27T12:44:30.132Z,3.77
2018-12-27T12:49:33.807Z,3.40
2018-12-27T12:54:37.512Z,3.90
2018-12-27T12:59:41.274Z,3.30
2018-12-27T13:04:45.318Z,3.50
2018-12-27T13:09:48.980Z,3.97
2018-12-27T13:14:52.686Z,4.03
2018-12-27T13:19:56.352Z,3.83
2018-12-27T13:25:00.035Z,3.53
2018-12-27T13:30:03.709Z,3.80
2018-12-27T13:35:07.397Z,4.17
2018-12-27T13:40:11.087Z,3.70
2018-12-27T13:45:15.092Z,4.00
2018-12-27T13:50:18.787Z,4.53
2018-12-27T13:55:22.460Z,3.87
2018-12-27T14:00:26.128Z,4.07
2018-12-27T14:05:30.101Z,3.87
2018-12-27T14:10:33.806Z,3.97
2018-12-27T14:15:37.746Z,4.90
2018-12-27T14:20:41.420Z,4.70
2018-12-27T14:25:45.899Z,4.03
2018-12-27T14:30:49.573Z,4.00
2018-12-27T14:35:53.493Z,4.30
2018-12-27T14:40:57.202Z,4.00
2018-12-27T14:46:00.862Z,4.50
2018-12-27T14:51:04.545Z,4.77
2018-12-27T14:56:08.552Z,4.80
2018-12-27T15:01:12.265Z,5.07
2018-12-27T15:06:16.306Z,4.87
2018-12-27T15:11:20.263Z,5.03
2018-12-27T15:16:24.201Z,5.07
2018-12-27T15:21:27.950Z,4.40
2018-12-27T15:26:31.624Z,4.90
2018-12-27T15:31:35.640Z,5.00
2018-12-27T15:36:39.643Z,5.20
2018-12-27T15:41:43.628Z,4.87
2018-12-27T15:46:47.322Z,4.80
2018-12-27T15:51:51.009Z,5.40
2018-12-27T15:56:54.933Z,6.83
2018-12-27T16:01:59.167Z,6.10
2018-12-27T16:07:02.994Z,5.43
2018-12-27T16:12:06.777Z,5.60
2018-12-27T16:17:10.444Z,5.87
2018-12-27T16:22:14.145Z,6.33
2018-12-27T16:27:18.180Z,6.10
2018-12-27T16:32:21.870Z,6.80
2018-12-27T16:37:25.555Z,6.70
2018-12-27T16:42:29.516Z,6.43
2018-12-27T16:47:33.471Z,7.17
2018-12-27T16:52:37.291Z,7.30
2018-12-27T16:57:41.275Z,7.10
2018-12-27T17:02:45.017Z,7.50
2018-12-27T17:07:48.737Z,7.70
2018-12-27T17:12:52.775Z,7.40
2018-12-27T17:17:56.495Z,7.13
2018-12-27T17:23:00.177Z,6.93
2018-12-27T17:28:04.389Z,7.23
2018-12-27T17:33:08.141Z,7.30
2018-12-27T17:38:11.819Z,7.67
2018-12-27T17:43:15.492Z,6.90
2018-12-27T17:48:19.269Z,6.80
2018-12-27T17:53:22.995Z,6.00
2018-12-27T17:58:27.033Z,6.10
2018-12-27T18:03:30.814Z,5.97
2018-12-27T18:08:34.483Z,6.20
2018-12-27T18:13:38.478Z,6.27
2018-12-27T18:18:42.140Z,6.20
2018-12-27T18:23:45.832Z,6.13
2018-12-27T18:28:49.763Z,6.40
2018-12-27T18:33:54.350Z,6.27
2018-12-27T18:38:58.109Z,6.27
2018-12-27T18:44:01.905Z,5.97
2018-12-27T18:49:06.007Z,6.27
2018-12-27T18:54:10.817Z,5.77
2018-12-27T18:59:14.700Z,6.50
2018-12-27T19:04:18.416Z,5.97
2018-12-27T19:09:23.229Z,5.67
2018-12-27T19:14:26.920Z,5.53
2018-12-27T19:19:30.615Z,5.17
2018-12-27T19:24:34.899Z,5.43
2018-12-27T19:29:38.600Z,5.10
2018-12-27T19:34:42.347Z,5.17
2018-12-27T19:39:46.085Z,5.33
2018-12-27T19:44:49.788Z,5.70
2018-12-27T19:49:53.854Z,5.90
2018-12-27T19:54:57.630Z,6.00
2018-12-27T20:00:02.649Z,5.93
2018-12-27T20:05:06.537Z,6.13
2018-12-27T20:10:10.403Z,6.47
2018-12-27T20:15:14.917Z,6.13
2018-12-27T20:20:18.812Z,6.53
2018-12-27T20:25:22.829Z,8.20
2018-12-27T20:30:26.575Z,6.70
2018-12-27T20:35:30.260Z,6.20
2018-12-27T20:40:33.941Z,6.60
2018-12-27T20:45:37.645Z,7.33
2018-12-27T20:50:41.573Z,7.20
2018-12-27T20:55:45.585Z,7.33
2018-12-27T21:00:49.249Z,7.10
2018-12-27T21:05:53.003Z,7.07
2018-12-27T21:10:57.082Z,7.97
2018-12-27T21:16:00.932Z,8.00
2018-12-27T21:21:05.261Z,7.73
2018-12-27T21:26:09.297Z,7.90
2018-12-27T21:31:13.039Z,9.67
2018-12-27T21:36:16.726Z,10.83
2018-12-27T21:41:20.387Z,8.00
2018-12-27T21:46:24.609Z,7.33
2018-12-27T21:51:29.148Z,8.00
2018-12-27T21:56:33.040Z,7.63
2018-12-27T22:01:38.963Z,8.23
2018-12-27T22:06:42.648Z,7.73
2018-12-27T22:11:46.581Z,8.07
2018-12-27T22:16:50.685Z,7.50
2018-12-27T22:21:54.426Z,7.97
2018-12-27T22:26:58.076Z,7.60
2018-12-27T22:32:01.753Z,7.50
2018-12-27T22:37:05.724Z,7.57
2018-12-27T22:42:09.448Z,7.50
2018-12-27T22:47:13.123Z,7.03
2018-12-27T22:52:16.787Z,7.63
2018-12-27T22:57:20.457Z,7.40
2018-12-27T23:02:24.143Z,7.77
2018-12-27T23:07:27.916Z,7.47
2018-12-27T23:12:31.602Z,7.17
2018-12-27T23:17:35.276Z,7.37
2018-12-27T23:22:38.976Z,7.13
2018-12-27T23:27:42.896Z,7.93
2018-12-27T23:32:47.169Z,7.50
2018-12-27T23:37:51.177Z,7.83
2018-12-27T23:42:54.853Z,8.10
2018-12-27T23:47:58.555Z,7.30
2018-12-27T23:53:02.258Z,6.40
2018-12-27T23:58:06.008Z,6.80
